Time;durP1;ratioP1;P1;durP2;ratioP2;P2;SDS_P1;SDS_P2;PMS_P1;PMS_P2;Temp;Humidity;BMP_temperature;BMP_pressure;BME280_temperature;BME280_humidity;BME280_pressure;Samples;Min_cycle;Max_cycle;Signal;HPM_P1;HPM_P2
2021/10/03 00:00:57;;;;;;;;;;;23.10;48.70;;;;;;1541489;76;732;-55
2021/10/03 00:02:59;;;;;;;;;;;23.20;48.80;;;;;;1542397;76;810;-55
2021/10/03 00:05:01;;;;;;;;;;;23.10;48.70;;;;;;1546273;76;1155;-57
2021/10/03 00:07:03;;;;;;;;;;;23.10;48.70;;;;;;1545507;76;626;-58
2021/10/03 00:09:05;;;;;;;;;;;23.10;48.70;;;;;;1545205;76;605;-57
2021/10/03 00:11:07;;;;;;;;;;;23.10;48.70;;;;;;1543608;75;765;-55
2021/10/03 00:13:09;;;;;;;;;;;23.20;48.80;;;;;;1543880;75;741;-58
2021/10/03 00:15:11;;;;;;;;;;;23.10;48.80;;;;;;1545845;75;1253;-55
2021/10/03 00:17:13;;;;;;;;;;;23.10;48.80;;;;;;1545748;76;1931;-56
2021/10/03 00:19:16;;;;;;;;;;;23.10;48.90;;;;;;1552259;75;709;-58
2021/10/03 00:21:18;;;;;;;;;;;23.20;48.80;;;;;;1546788;75;744;-58
2021/10/03 00:23:19;;;;;;;;;;;23.10;48.80;;;;;;1554934;75;859;-58
2021/10/03 00:25:25;;;;;;;;;;;23.10;48.80;;;;;;1544848;75;1162;-56
2021/10/03 00:27:25;;;;;;;;;;;23.10;48.70;;;;;;1545173;76;1600;-57
2021/10/03 00:29:27;;;;;;;;;;;23.10;48.70;;;;;;1545002;75;732;-56
2021/10/03 00:31:29;;;;;;;;;;;23.10;48.80;;;;;;1538249;76;758;-56
2021/10/03 00:33:31;;;;;;;;;;;23.10;48.70;;;;;;1548066;75;709;-58
2021/10/03 00:35:33;;;;;;;;;;;23.20;48.70;;;;;;1548008;75;1154;-59
2021/10/03 00:37:35;;;;;;;;;;;23.10;48.70;;;;;;1545600;76;1941;-56
2021/10/03 00:39:37;;;;;;;;;;;23.10;48.70;;;;;;1541094;75;709;-56
2021/10/03 00:41:39;;;;;;;;;;;23.10;48.70;;;;;;1540215;76;654;-56
2021/10/03 00:43:44;;;;;;;;;;;23.10;48.60;;;;;;1545837;76;710;-56
2021/10/03 00:45:46;;;;;;;;;;;23.10;48.60;;;;;;1557888;75;692;-58
2021/10/03 00:47:48;;;;;;;;;;;23.10;48.60;;;;;;1545019;75;816;-56
2021/10/03 00:49:50;;;;;;;;;;;23.10;48.60;;;;;;1537688;76;702;-56
2021/10/03 00:51:51;;;;;;;;;;;23.10;48.60;;;;;;1545042;75;838;-58
2021/10/03 00:53:53;;;;;;;;;;;23.10;48.60;;;;;;1545188;75;1158;-56
2021/10/03 00:55:55;;;;;;;;;;;23.10;48.60;;;;;;1547452;75;729;-56
2021/10/03 00:57:57;;;;;;;;;;;23.10;48.60;;;;;;1540451;75;1935;-59
2021/10/03 01:02:03;;;;;;;;;;;23.10;48.60;;;;;;1597037;74;571;-69
2021/10/03 01:04:05;;;;;;;;;;;23.10;48.60;;;;;;1599579;74;628;-68
2021/10/03 01:06:07;;;;;;;;;;;23.10;48.60;;;;;;1601181;74;726;-68
2021/10/03 01:08:09;;;;;;;;;;;23.10;48.70;;;;;;1598268;72;821;-68
2021/10/03 01:10:12;;;;;;;;;;;23.10;48.70;;;;;;1597865;73;1211;-68
2021/10/03 01:12:14;;;;;;;;;;;23.10;48.70;;;;;;1584759;74;944;-68
2021/10/03 01:14:16;;;;;;;;;;;23.10;48.70;;;;;;1590700;74;761;-65
2021/10/03 01:16:18;;;;;;;;;;;23.10;48.70;;;;;;1585802;73;769;-67
2021/10/03 01:18:20;;;;;;;;;;;23.10;48.60;;;;;;1590952;74;1929;-68
2021/10/03 01:20:22;;;;;;;;;;;23.10;48.70;;;;;;1588691;74;1082;-67
2021/10/03 01:22:23;;;;;;;;;;;23.10;48.80;;;;;;1576488;74;737;-68
2021/10/03 01:24:25;;;;;;;;;;;23.10;48.80;;;;;;1588242;73;691;-68
2021/10/03 01:26:28;;;;;;;;;;;23.10;48.80;;;;;;1590068;74;822;-68
2021/10/03 01:28:30;;;;;;;;;;;23.10;48.80;;;;;;1578252;74;739;-68
2021/10/03 01:30:32;;;;;;;;;;;23.10;48.70;;;;;;1572115;74;1141;-67
2021/10/03 01:32:33;;;;;;;;;;;23.20;48.80;;;;;;1588723;73;690;-68
2021/10/03 01:34:36;;;;;;;;;;;23.20;48.80;;;;;;1572322;74;722;-68
2021/10/03 01:36:37;;;;;;;;;;;23.20;48.70;;;;;;1584645;73;1937;-67
2021/10/03 01:38:39;;;;;;;;;;;23.20;48.60;;;;;;1584534;73;800;-67
2021/10/03 01:40:43;;;;;;;;;;;23.20;48.70;;;;;;1585926;74;1147;-67
2021/10/03 01:42:44;;;;;;;;;;;23.20;48.70;;;;;;1582416;74;782;-66
2021/10/03 01:44:46;;;;;;;;;;;23.10;48.70;;;;;;1590166;74;711;-67
2021/10/03 01:46:48;;;;;;;;;;;23.10;48.70;;;;;;1594609;73;711;-68
2021/10/03 01:48:50;;;;;;;;;;;23.20;48.70;;;;;;1583146;74;756;-68
2021/10/03 01:50:53;;;;;;;;;;;23.20;48.70;;;;;;1588503;73;1156;-67
2021/10/03 01:52:55;;;;;;;;;;;23.10;48.60;;;;;;1590372;74;833;-68
2021/10/03 01:55:01;;;;;;;;;;;23.20;48.60;;;;;;1585603;73;774;-68
2021/10/03 01:57:02;;;;;;;;;;;23.20;48.60;;;;;;1587064;74;1927;-68
2021/10/03 01:59:04;;;;;;;;;;;23.20;48.70;;;;;;1588483;74;728;-68
2021/10/03 02:01:07;;;;;;;;;;;23.20;48.70;;;;;;1580498;74;1190;-68
2021/10/03 02:03:09;;;;;;;;;;;23.10;48.70;;;;;;1587541;73;702;-67
2021/10/03 02:05:11;;;;;;;;;;;23.20;48.60;;;;;;1575372;74;772;-67
2021/10/03 02:07:13;;;;;;;;;;;23.10;48.70;;;;;;1588249;74;813;-67
2021/10/03 02:09:15;;;;;;;;;;;23.10;48.70;;;;;;1595731;74;764;-66
2021/10/03 02:11:17;;;;;;;;;;;23.10;48.70;;;;;;1582441;74;1185;-66
2021/10/03 02:13:19;;;;;;;;;;;23.20;48.70;;;;;;1582889;73;796;-66
2021/10/03 02:15:21;;;;;;;;;;;23.10;48.80;;;;;;1584192;74;718;-66
2021/10/03 02:17:23;;;;;;;;;;;23.10;48.70;;;;;;1577505;74;1934;-68
2021/10/03 02:19:25;;;;;;;;;;;23.10;48.80;;;;;;1586740;74;793;-66
2021/10/03 02:21:30;;;;;;;;;;;23.10;48.80;;;;;;1587176;73;1175;-67
2021/10/03 02:23:32;;;;;;;;;;;23.10;48.80;;;;;;1589051;74;872;-67
2021/10/03 02:25:34;;;;;;;;;;;23.10;48.90;;;;;;1589085;74;789;-68
2021/10/03 02:27:35;;;;;;;;;;;23.10;48.90;;;;;;1584714;74;789;-68
2021/10/03 02:29:37;;;;;;;;;;;23.10;49.00;;;;;;1590463;74;800;-69
2021/10/03 02:31:39;;;;;;;;;;;23.10;49.00;;;;;;1580243;73;1076;-68
2021/10/03 02:33:42;;;;;;;;;;;23.10;49.00;;;;;;1583673;74;666;-69
2021/10/03 02:35:44;;;;;;;;;;;23.10;48.90;;;;;;1584575;74;730;-68
2021/10/03 02:37:46;;;;;;;;;;;23.10;49.00;;;;;;1571578;74;1974;-68
2021/10/03 02:39:48;;;;;;;;;;;23.10;48.90;;;;;;1592427;74;807;-68
2021/10/03 02:41:50;;;;;;;;;;;23.00;48.80;;;;;;1579932;73;1091;-68
2021/10/03 02:43:53;;;;;;;;;;;23.10;48.90;;;;;;1581566;74;783;-68
2021/10/03 02:45:55;;;;;;;;;;;23.00;48.90;;;;;;1585083;74;739;-68
2021/10/03 02:47:57;;;;;;;;;;;23.10;48.90;;;;;;1584787;74;1123;-70
2021/10/03 02:49:58;;;;;;;;;;;23.00;48.80;;;;;;1586901;74;1144;-69
2021/10/03 02:52:00;;;;;;;;;;;23.10;48.90;;;;;;1577672;73;809;-69
2021/10/03 02:54:02;;;;;;;;;;;23.00;48.80;;;;;;1590405;74;821;-68
2021/10/03 02:56:04;;;;;;;;;;;23.10;49.10;;;;;;1571092;74;826;-68
2021/10/03 02:58:06;;;;;;;;;;;23.10;49.00;;;;;;1587912;74;1937;-69
2021/10/03 03:00:08;;;;;;;;;;;23.00;48.90;;;;;;1584714;73;1120;-68
2021/10/03 03:02:10;;;;;;;;;;;23.10;49.10;;;;;;1572229;74;774;-69
2021/10/03 03:04:12;;;;;;;;;;;23.00;48.90;;;;;;1585726;74;824;-68
2021/10/03 03:06:14;;;;;;;;;;;23.10;49.10;;;;;;1586671;74;791;-68
2021/10/03 03:08:16;;;;;;;;;;;23.10;49.20;;;;;;1580618;73;710;-66
2021/10/03 03:10:18;;;;;;;;;;;23.10;49.20;;;;;;1588266;73;1156;-67
2021/10/03 03:12:20;;;;;;;;;;;23.00;49.20;;;;;;1593011;74;778;-68
2021/10/03 03:14:22;;;;;;;;;;;23.00;49.20;;;;;;1585387;74;825;-69
2021/10/03 03:16:23;;;;;;;;;;;23.10;49.30;;;;;;1584815;74;995;-68
2021/10/03 03:18:25;;;;;;;;;;;23.10;49.40;;;;;;1589324;73;1941;-68
2021/10/03 03:20:27;;;;;;;;;;;23.00;49.20;;;;;;1593559;74;1157;-68
2021/10/03 03:22:29;;;;;;;;;;;23.10;49.40;;;;;;1583965;74;822;-68
2021/10/03 03:24:31;;;;;;;;;;;23.10;49.40;;;;;;1593447;74;792;-68
2021/10/03 03:26:33;;;;;;;;;;;23.10;49.40;;;;;;1581453;73;806;-68
2021/10/03 03:28:35;;;;;;;;;;;23.00;49.40;;;;;;1580245;73;728;-68
2021/10/03 03:30:37;;;;;;;;;;;23.10;49.40;;;;;;1587923;74;1120;-68
2021/10/03 03:32:39;;;;;;;;;;;23.10;49.40;;;;;;1577456;74;787;-68
2021/10/03 03:34:41;;;;;;;;;;;23.10;49.40;;;;;;1586319;74;772;-68
2021/10/03 03:36:43;;;;;;;;;;;23.10;49.40;;;;;;1577425;74;665;-68
2021/10/03 03:38:46;;;;;;;;;;;23.10;49.50;;;;;;1588372;73;1937;-68
2021/10/03 03:40:47;;;;;;;;;;;23.10;49.40;;;;;;1584028;73;1101;-68
2021/10/03 03:42:49;;;;;;;;;;;23.00;49.30;;;;;;1582913;74;723;-67
2021/10/03 03:44:51;;;;;;;;;;;23.10;49.50;;;;;;1587200;73;770;-67
2021/10/03 03:46:53;;;;;;;;;;;23.00;49.30;;;;;;1588703;73;765;-68
2021/10/03 03:48:55;;;;;;;;;;;23.00;49.30;;;;;;1587726;74;870;-68
2021/10/03 03:50:57;;;;;;;;;;;23.20;49.40;;;;;;1592638;74;1146;-68
2021/10/03 03:52:59;;;;;;;;;;;23.00;49.30;;;;;;1588600;74;708;-68
2021/10/03 03:55:01;;;;;;;;;;;23.20;49.50;;;;;;1586675;74;878;-68
2021/10/03 03:57:03;;;;;;;;;;;23.10;49.50;;;;;;1585636;73;783;-68
2021/10/03 03:59:05;;;;;;;;;;;23.10;49.50;;;;;;1586255;74;1947;-68
2021/10/03 04:01:06;;;;;;;;;;;23.10;49.50;;;;;;1591868;74;1159;-67
2021/10/03 04:03:08;;;;;;;;;;;23.10;49.60;;;;;;1588067;74;816;-69
2021/10/03 04:05:10;;;;;;;;;;;23.10;49.60;;;;;;1586703;73;754;-68
2021/10/03 04:07:12;;;;;;;;;;;23.10;49.50;;;;;;1594804;74;723;-68
2021/10/03 04:09:14;;;;;;;;;;;23.10;49.60;;;;;;1590263;74;770;-69
2021/10/03 04:11:16;;;;;;;;;;;23.10;49.70;;;;;;1578730;74;1106;-67
2021/10/03 04:13:18;;;;;;;;;;;23.10;49.70;;;;;;1588853;74;748;-68
2021/10/03 04:15:20;;;;;;;;;;;23.10;49.70;;;;;;1591874;74;713;-69
2021/10/03 04:17:22;;;;;;;;;;;23.00;49.40;;;;;;1591680;74;673;-69
2021/10/03 04:19:24;;;;;;;;;;;23.00;49.40;;;;;;1590595;74;1936;-69
2021/10/03 04:21:26;;;;;;;;;;;23.10;49.50;;;;;;1585274;74;1149;-69
2021/10/03 04:23:28;;;;;;;;;;;23.10;49.60;;;;;;1591007;73;800;-69
2021/10/03 04:25:29;;;;;;;;;;;23.10;49.60;;;;;;1578613;73;820;-67
2021/10/03 04:27:31;;;;;;;;;;;23.10;49.60;;;;;;1584780;74;673;-67
2021/10/03 04:29:33;;;;;;;;;;;23.10;49.50;;;;;;1584065;74;709;-68
2021/10/03 04:31:35;;;;;;;;;;;23.10;49.60;;;;;;1577119;73;1144;-68
2021/10/03 04:33:41;;;;;;;;;;;23.00;49.40;;;;;;1582719;74;787;-68
2021/10/03 04:35:40;;;;;;;;;;;23.10;49.40;;;;;;1577250;74;1647;-68
2021/10/03 04:37:42;;;;;;;;;;;23.10;49.50;;;;;;1580407;74;1945;-68
2021/10/03 04:39:44;;;;;;;;;;;23.10;49.40;;;;;;1584819;74;695;-68
2021/10/03 04:41:46;;;;;;;;;;;23.00;49.30;;;;;;1590073;73;1105;-67
2021/10/03 04:43:48;;;;;;;;;;;23.00;49.30;;;;;;1590997;73;711;-68
2021/10/03 04:45:50;;;;;;;;;;;23.10;49.60;;;;;;1583856;74;739;-68
2021/10/03 04:47:52;;;;;;;;;;;23.00;49.50;;;;;;1580609;74;776;-68
2021/10/03 04:49:58;;;;;;;;;;;23.00;49.50;;;;;;1586122;74;736;-67
2021/10/03 04:52:00;;;;;;;;;;;23.10;49.70;;;;;;1592400;73;775;-69
2021/10/03 04:54:02;;;;;;;;;;;23.10;49.70;;;;;;1589182;74;654;-69
2021/10/03 04:56:04;;;;;;;;;;;23.10;49.60;;;;;;1583180;74;831;-68
2021/10/03 04:58:06;;;;;;;;;;;23.10;49.80;;;;;;1586125;74;2064;-69
2021/10/03 05:00:08;;;;;;;;;;;23.10;49.80;;;;;;1594070;74;1151;-69
2021/10/03 05:02:10;;;;;;;;;;;23.10;49.80;;;;;;1586025;73;825;-69
2021/10/03 05:04:12;;;;;;;;;;;23.10;49.80;;;;;;1593756;73;817;-70
2021/10/03 05:06:14;;;;;;;;;;;23.10;49.90;;;;;;1591687;73;745;-71
2021/10/03 05:08:18;;;;;;;;;;;23.10;50.00;;;;;;1592709;73;781;-69
2021/10/03 05:10:19;;;;;;;;;;;23.10;49.80;;;;;;1593355;73;1159;-69
2021/10/03 05:12:21;;;;;;;;;;;23.20;49.80;;;;;;1591406;73;816;-71
2021/10/03 05:14:24;;;;;;;;;;;23.20;49.80;;;;;;1589744;73;725;-69
2021/10/03 05:16:26;;;;;;;;;;;23.40;49.70;;;;;;1593790;73;706;-72
2021/10/03 05:18:28;;;;;;;;;;;23.40;49.70;;;;;;1593626;73;1931;-72
2021/10/03 05:20:30;;;;;;;;;;;23.30;49.80;;;;;;1592107;73;1129;-69
2021/10/03 05:22:31;;;;;;;;;;;23.30;49.90;;;;;;1591333;73;716;-67
2021/10/03 05:24:33;;;;;;;;;;;23.20;49.70;;;;;;1588239;73;731;-68
2021/10/03 05:26:35;;;;;;;;;;;23.20;49.60;;;;;;1588650;74;776;-67
2021/10/03 05:28:37;;;;;;;;;;;23.20;49.50;;;;;;1593125;73;793;-68
2021/10/03 05:30:39;;;;;;;;;;;23.20;49.50;;;;;;1590620;73;1110;-69
2021/10/03 05:32:41;;;;;;;;;;;23.20;49.50;;;;;;1588360;73;711;-67
2021/10/03 05:34:43;;;;;;;;;;;23.10;49.50;;;;;;1591934;73;825;-68
2021/10/03 05:36:45;;;;;;;;;;;23.10;49.60;;;;;;1589355;73;739;-68
2021/10/03 05:38:47;;;;;;;;;;;23.10;49.70;;;;;;1588752;73;1929;-68
2021/10/03 05:40:49;;;;;;;;;;;23.10;49.60;;;;;;1590494;73;1136;-67
2021/10/03 05:42:51;;;;;;;;;;;23.10;49.70;;;;;;1583768;73;776;-66
2021/10/03 05:44:52;;;;;;;;;;;23.10;49.70;;;;;;1587812;73;705;-67
2021/10/03 05:46:54;;;;;;;;;;;23.10;49.70;;;;;;1588834;73;710;-68
2021/10/03 05:48:56;;;;;;;;;;;23.10;49.70;;;;;;1592885;73;768;-67
2021/10/03 05:50:58;;;;;;;;;;;23.10;49.80;;;;;;1589342;73;1163;-68
2021/10/03 05:53:00;;;;;;;;;;;23.10;49.80;;;;;;1593870;73;704;-68
2021/10/03 05:55:02;;;;;;;;;;;23.10;49.80;;;;;;1591803;73;668;-68
2021/10/03 05:57:04;;;;;;;;;;;23.00;49.70;;;;;;1589611;73;737;-68
2021/10/03 05:59:07;;;;;;;;;;;23.00;49.80;;;;;;1591440;73;1924;-68
2021/10/03 06:01:09;;;;;;;;;;;23.00;49.80;;;;;;1565078;75;1248;-68
2021/10/03 06:03:11;;;;;;;;;;;23.00;49.90;;;;;;1559845;75;800;-68
2021/10/03 06:05:13;;;;;;;;;;;22.90;49.80;;;;;;1559673;75;711;-68
2021/10/03 06:07:15;;;;;;;;;;;23.00;49.80;;;;;;1560232;75;658;-68
2021/10/03 06:09:17;;;;;;;;;;;23.00;49.90;;;;;;1549454;76;732;-68
2021/10/03 06:11:19;;;;;;;;;;;22.90;49.90;;;;;;1554379;76;1154;-68
2021/10/03 06:13:20;;;;;;;;;;;23.00;49.90;;;;;;1525177;78;689;-69
2021/10/03 06:15:23;;;;;;;;;;;22.90;50.00;;;;;;1528023;78;745;-69
2021/10/03 06:17:24;;;;;;;;;;;22.90;50.00;;;;;;1553582;75;649;-69
2021/10/03 06:19:26;;;;;;;;;;;23.00;49.90;;;;;;1557049;75;1940;-69
2021/10/03 06:21:28;;;;;;;;;;;22.90;50.00;;;;;;1548921;75;1203;-69
2021/10/03 06:23:30;;;;;;;;;;;22.90;50.00;;;;;;1527628;78;708;-69
2021/10/03 06:25:32;;;;;;;;;;;22.90;50.00;;;;;;1553090;75;666;-69
2021/10/03 06:27:34;;;;;;;;;;;22.90;50.00;;;;;;1548576;75;710;-69
2021/10/03 06:29:36;;;;;;;;;;;22.90;50.00;;;;;;1591002;74;832;-69
2021/10/03 06:31:38;;;;;;;;;;;22.90;50.00;;;;;;1590519;73;1338;-69
2021/10/03 06:33:40;;;;;;;;;;;22.90;50.10;;;;;;1589348;73;827;-72
2021/10/03 06:35:42;;;;;;;;;;;22.90;50.10;;;;;;1583093;73;763;-69
2021/10/03 06:37:44;;;;;;;;;;;22.90;50.10;;;;;;1586548;73;783;-69
2021/10/03 06:39:46;;;;;;;;;;;22.90;50.10;;;;;;1588589;73;1923;-69
2021/10/03 06:41:48;;;;;;;;;;;22.90;50.10;;;;;;1591978;73;1135;-67
2021/10/03 06:43:49;;;;;;;;;;;22.90;50.10;;;;;;1591278;73;737;-69
2021/10/03 06:45:51;;;;;;;;;;;22.90;50.10;;;;;;1593632;73;651;-72
2021/10/03 06:47:53;;;;;;;;;;;23.00;50.20;;;;;;1592910;74;856;-72
2021/10/03 06:49:55;;;;;;;;;;;22.90;50.20;;;;;;1589472;74;780;-74
2021/10/03 06:51:57;;;;;;;;;;;22.90;50.20;;;;;;1591789;74;1121;-72
2021/10/03 06:53:59;;;;;;;;;;;22.90;50.00;;;;;;1591165;73;781;-71
2021/10/03 06:56:02;;;;;;;;;;;22.90;49.90;;;;;;1589379;74;783;-72
2021/10/03 06:58:04;;;;;;;;;;;22.90;49.70;;;;;;1582839;73;1009;-72
2021/10/03 07:00:06;;;;;;;;;;;22.90;49.70;;;;;;1592186;73;1948;-72
2021/10/03 07:02:10;;;;;;;;;;;22.90;49.50;;;;;;1578864;73;2177;-72
2021/10/03 07:04:12;;;;;;;;;;;22.90;49.40;;;;;;1580601;74;693;-72
2021/10/03 07:06:14;;;;;;;;;;;22.90;49.40;;;;;;1575143;74;757;-71
2021/10/03 07:08:16;;;;;;;;;;;22.80;49.20;;;;;;1579934;74;660;-70
2021/10/03 07:10:17;;;;;;;;;;;22.80;49.10;;;;;;1588616;74;718;-73
2021/10/03 07:12:19;;;;;;;;;;;22.80;49.10;;;;;;1571667;74;1191;-72
2021/10/03 07:14:22;;;;;;;;;;;22.80;49.00;;;;;;1568511;75;721;-71
2021/10/03 07:16:24;;;;;;;;;;;22.90;49.10;;;;;;1567517;75;728;-72
2021/10/03 07:18:26;;;;;;;;;;;22.90;49.00;;;;;;1566927;74;770;-71
2021/10/03 07:20:27;;;;;;;;;;;22.80;48.90;;;;;;1562792;74;1945;-72
2021/10/03 07:22:29;;;;;;;;;;;22.80;48.90;;;;;;1570382;74;1184;-72
2021/10/03 07:24:31;;;;;;;;;;;22.80;48.90;;;;;;1571221;75;698;-71
2021/10/03 07:26:33;;;;;;;;;;;22.80;48.80;;;;;;1562653;75;734;-69
2021/10/03 07:28:35;;;;;;;;;;;22.80;48.80;;;;;;1570111;75;731;-71
2021/10/03 07:30:38;;;;;;;;;;;22.80;48.80;;;;;;1562191;74;1152;-72
2021/10/03 07:32:40;;;;;;;;;;;22.80;48.70;;;;;;1570586;75;700;-73
2021/10/03 07:34:42;;;;;;;;;;;22.80;48.70;;;;;;1571161;75;702;-73
2021/10/03 07:36:44;;;;;;;;;;;22.80;48.80;;;;;;1563049;75;718;-74
2021/10/03 07:38:46;;;;;;;;;;;22.80;48.70;;;;;;1566089;74;726;-73
2021/10/03 07:40:48;;;;;;;;;;;22.80;48.60;;;;;;1564143;75;1129;-73
2021/10/03 07:42:50;;;;;;;;;;;22.80;48.70;;;;;;1568741;75;720;-73
2021/10/03 07:44:52;;;;;;;;;;;22.80;48.60;;;;;;1569439;74;717;-69
2021/10/03 07:46:53;;;;;;;;;;;22.80;48.60;;;;;;1565883;75;693;-73
2021/10/03 07:48:55;;;;;;;;;;;22.80;48.60;;;;;;1567004;75;715;-71
2021/10/03 07:50:57;;;;;;;;;;;22.80;48.60;;;;;;1570855;75;1158;-74
2021/10/03 07:52:59;;;;;;;;;;;22.80;48.60;;;;;;1571580;75;710;-71
2021/10/03 07:55:01;;;;;;;;;;;22.80;48.50;;;;;;1570439;75;746;-70
2021/10/03 07:57:03;;;;;;;;;;;22.80;48.50;;;;;;1569196;75;703;-78
2021/10/03 07:59:05;;;;;;;;;;;22.70;48.50;;;;;;1571751;75;1922;-71
2021/10/03 08:01:07;;;;;;;;;;;22.70;48.50;;;;;;1565602;75;1384;-73
2021/10/03 08:03:09;;;;;;;;;;;22.80;48.60;;;;;;1570690;75;797;-72
2021/10/03 08:05:12;;;;;;;;;;;22.70;48.50;;;;;;1568907;75;730;-71
2021/10/03 08:07:14;;;;;;;;;;;22.80;48.50;;;;;;1571967;75;724;-72
2021/10/03 08:09:16;;;;;;;;;;;22.80;45.60;;;;;;1567888;75;743;-73
2021/10/03 08:11:18;;;;;;;;;;;22.80;46.60;;;;;;1570987;74;1196;-74
2021/10/03 08:13:20;;;;;;;;;;;22.80;44.80;;;;;;1571167;75;731;-71
2021/10/03 08:15:22;;;;;;;;;;;22.90;46.00;;;;;;1568754;75;738;-72
2021/10/03 08:17:24;;;;;;;;;;;23.00;44.70;;;;;;1571203;75;711;-70
2021/10/03 08:19:26;;;;;;;;;;;22.90;44.70;;;;;;1570548;75;1940;-73
2021/10/03 08:21:27;;;;;;;;;;;23.00;44.30;;;;;;1571547;74;1156;-71
2021/10/03 08:23:29;;;;;;;;;;;22.90;44.20;;;;;;1566854;75;790;-72
2021/10/03 08:25:31;;;;;;;;;;;23.00;43.30;;;;;;1565667;75;755;-71
2021/10/03 08:27:33;;;;;;;;;;;22.90;42.60;;;;;;1569071;75;699;-74
2021/10/03 08:29:35;;;;;;;;;;;22.90;42.50;;;;;;1560506;75;734;-74
2021/10/03 08:31:37;;;;;;;;;;;22.80;42.50;;;;;;1566333;75;1163;-73
2021/10/03 08:33:39;;;;;;;;;;;22.80;42.60;;;;;;1572137;75;734;-73
2021/10/03 08:35:41;;;;;;;;;;;22.80;42.60;;;;;;1567788;75;701;-72
2021/10/03 08:37:43;;;;;;;;;;;22.80;43.00;;;;;;1569239;75;713;-70
2021/10/03 08:39:45;;;;;;;;;;;22.80;42.30;;;;;;1572126;75;1903;-72
2021/10/03 08:41:47;;;;;;;;;;;22.80;43.00;;;;;;1571570;75;1416;-74
2021/10/03 08:43:52;;;;;;;;;;;22.90;43.50;;;;;;1571322;75;694;-73
2021/10/03 08:45:53;;;;;;;;;;;22.90;43.00;;;;;;1569126;75;1174;-73
2021/10/03 08:47:54;;;;;;;;;;;22.80;42.00;;;;;;1571719;75;727;-72
2021/10/03 08:49:57;;;;;;;;;;;23.00;43.40;;;;;;1571144;75;729;-75
2021/10/03 08:51:59;;;;;;;;;;;23.00;42.60;;;;;;1569378;75;1067;-74
2021/10/03 08:54:01;;;;;;;;;;;23.00;43.10;;;;;;1570963;75;713;-73
2021/10/03 08:56:03;;;;;;;;;;;23.00;42.90;;;;;;1569487;75;784;-71
2021/10/03 08:58:05;;;;;;;;;;;23.20;42.30;;;;;;1571443;75;790;-74
2021/10/03 09:00:17;;;;;;;;;;;23.20;41.70;;;;;;1568481;75;1923;-74
2021/10/03 09:02:17;;;;;;;;;;;23.30;42.10;;;;;;1571437;75;1099;-72
2021/10/03 09:04:26;;;;;;;;;;;23.30;41.50;;;;;;1567102;75;663;-74
2021/10/03 09:06:28;;;;;;;;;;;23.30;42.40;;;;;;1562652;75;659;-74
2021/10/03 09:08:30;;;;;;;;;;;23.40;41.00;;;;;;1566254;75;729;-74
2021/10/03 09:10:34;;;;;;;;;;;23.30;41.50;;;;;;1570349;75;827;-74
2021/10/03 09:12:36;;;;;;;;;;;23.30;41.50;;;;;;1553893;75;983;-76
2021/10/03 09:14:38;;;;;;;;;;;23.40;41.70;;;;;;1570158;75;756;-74
2021/10/03 09:16:42;;;;;;;;;;;23.40;41.50;;;;;;1564606;75;722;-76
2021/10/03 09:18:45;;;;;;;;;;;23.40;41.30;;;;;;1562342;75;684;-74
2021/10/03 09:20:47;;;;;;;;;;;23.50;41.30;;;;;;1570952;75;1969;-74
2021/10/03 09:22:57;;;;;;;;;;;23.50;41.10;;;;;;1565624;75;742;-74
2021/10/03 09:24:59;;;;;;;;;;;23.40;40.40;;;;;;1571155;75;707;-75
2021/10/03 09:27:03;;;;;;;;;;;23.50;40.70;;;;;;1565995;75;710;-74
2021/10/03 09:29:24;;;;;;;;;;;23.50;40.20;;;;;;1570369;75;777;-75
2021/10/03 09:31:26;;;;;;;;;;;23.50;40.20;;;;;;1566850;74;1172;-74
2021/10/03 09:33:32;;;;;;;;;;;23.50;40.60;;;;;;1567849;75;722;-74
2021/10/03 09:35:34;;;;;;;;;;;23.50;40.60;;;;;;1541528;75;1054;-74
2021/10/03 09:37:37;;;;;;;;;;;23.50;40.90;;;;;;1566643;75;685;-74
2021/10/03 09:39:42;;;;;;;;;;;23.50;41.00;;;;;;1569962;75;1910;-74
2021/10/03 09:41:45;;;;;;;;;;;23.50;40.80;;;;;;1568872;75;1172;-75
2021/10/03 09:43:52;;;;;;;;;;;23.60;40.90;;;;;;1569618;75;762;-76
2021/10/03 09:45:53;;;;;;;;;;;23.60;40.60;;;;;;1570270;75;588;-70
2021/10/03 09:48:00;;;;;;;;;;;23.60;40.50;;;;;;1568558;75;707;-74
2021/10/03 09:50:02;;;;;;;;;;;23.60;40.40;;;;;;1570844;75;689;-74
2021/10/03 09:52:04;;;;;;;;;;;23.60;40.40;;;;;;1568530;75;1129;-75
2021/10/03 09:54:06;;;;;;;;;;;23.70;40.20;;;;;;1570658;75;849;-76
2021/10/03 09:56:08;;;;;;;;;;;23.70;40.60;;;;;;1569658;75;739;-74
2021/10/03 09:58:12;;;;;;;;;;;23.70;40.50;;;;;;1570741;75;695;-74
2021/10/03 10:00:14;;;;;;;;;;;23.70;40.20;;;;;;1572520;74;1922;-75
2021/10/03 10:02:16;;;;;;;;;;;23.70;40.30;;;;;;1568320;74;1093;-72
2021/10/03 10:04:18;;;;;;;;;;;23.60;39.10;;;;;;1571132;75;735;-74
2021/10/03 10:06:20;;;;;;;;;;;23.60;39.40;;;;;;1569706;75;669;-74
2021/10/03 10:08:22;;;;;;;;;;;23.60;39.20;;;;;;1536818;77;1236;-74
2021/10/03 10:10:24;;;;;;;;;;;23.70;39.60;;;;;;1542466;77;655;-73
2021/10/03 10:12:26;;;;;;;;;;;23.70;39.50;;;;;;1517264;77;1122;-73
2021/10/03 10:14:28;;;;;;;;;;;23.70;39.40;;;;;;1534419;77;675;-75
2021/10/03 10:16:34;;;;;;;;;;;23.70;39.20;;;;;;1508984;78;749;-76
2021/10/03 10:18:36;;;;;;;;;;;23.80;39.50;;;;;;1509267;78;681;-76
2021/10/03 10:20:38;;;;;;;;;;;23.70;38.90;;;;;;1539365;77;1932;-76
2021/10/03 10:22:41;;;;;;;;;;;23.70;38.70;;;;;;1538675;77;793;-75
2021/10/03 10:24:47;;;;;;;;;;;23.70;39.20;;;;;;1540859;77;723;-75
2021/10/03 10:26:49;;;;;;;;;;;23.80;39.10;;;;;;1507561;78;699;-72
2021/10/03 10:28:51;;;;;;;;;;;23.70;39.20;;;;;;1536651;77;772;-74
2021/10/03 10:31:03;;;;;;;;;;;23.80;39.20;;;;;;1533580;77;1117;-74
2021/10/03 10:33:07;;;;;;;;;;;23.70;38.80;;;;;;1535459;76;720;-73
2021/10/03 10:35:11;;;;;;;;;;;23.80;39.00;;;;;;1507252;78;873;-74
2021/10/03 10:37:13;;;;;;;;;;;23.70;38.90;;;;;;1526197;77;682;-77
2021/10/03 10:39:16;;;;;;;;;;;23.70;39.00;;;;;;1530421;78;766;-73
2021/10/03 10:41:31;;;;;;;;;;;23.60;39.00;;;;;;1528461;77;1934;-73
2021/10/03 10:43:35;;;;;;;;;;;23.70;38.90;;;;;;1529651;77;698;-72
2021/10/03 10:45:40;;;;;;;;;;;23.70;39.30;;;;;;1527414;77;1041;-73
2021/10/03 10:47:41;;;;;;;;;;;23.60;39.20;;;;;;1526097;77;1194;-73
2021/10/03 10:49:43;;;;;;;;;;;23.70;39.20;;;;;;1503497;78;720;-73
2021/10/03 10:51:45;;;;;;;;;;;23.60;39.00;;;;;;1530076;77;1148;-72
2021/10/03 10:53:47;;;;;;;;;;;23.60;39.30;;;;;;1520904;77;706;-75
2021/10/03 10:56:07;;;;;;;;;;;23.60;39.60;;;;;;1525590;77;713;-73
2021/10/03 10:58:09;;;;;;;;;;;23.70;39.80;;;;;;1516958;77;722;-73
2021/10/03 11:00:22;;;;;;;;;;;23.70;39.90;;;;;;1509646;77;1940;-72
2021/10/03 11:02:42;;;;;;;;;;;23.80;39.90;;;;;;1541467;75;1111;-73
2021/10/03 11:04:44;;;;;;;;;;;23.70;39.90;;;;;;1524229;76;765;-72
2021/10/03 11:06:50;;;;;;;;;;;23.80;39.90;;;;;;1528798;77;729;-71
2021/10/03 11:09:00;;;;;;;;;;;23.70;40.00;;;;;;1525382;77;733;-73
2021/10/03 11:11:09;;;;;;;;;;;23.70;40.00;;;;;;1522942;77;1159;-72
2021/10/03 11:13:25;;;;;;;;;;;23.70;39.90;;;;;;1532566;77;1157;-72
2021/10/03 11:15:28;;;;;;;;;;;23.70;40.00;;;;;;1531519;77;725;-72
2021/10/03 11:17:30;;;;;;;;;;;23.70;40.00;;;;;;1511096;77;713;-72
2021/10/03 11:19:33;;;;;;;;;;;23.70;40.10;;;;;;1517006;77;709;-72
2021/10/03 11:21:36;;;;;;;;;;;23.70;40.10;;;;;;1535026;75;1943;-71
2021/10/03 11:23:38;;;;;;;;;;;23.70;39.60;;;;;;1511462;77;686;-71
2021/10/03 11:25:40;;;;;;;;;;;23.80;40.00;;;;;;1533135;76;677;-74
2021/10/03 11:27:42;;;;;;;;;;;23.80;40.10;;;;;;1532506;77;724;-71
2021/10/03 11:29:50;;;;;;;;;;;23.80;40.10;;;;;;1504397;79;737;-72
2021/10/03 11:31:54;;;;;;;;;;;23.80;40.10;;;;;;1531369;77;1147;-75
2021/10/03 11:33:56;;;;;;;;;;;23.70;40.20;;;;;;1512385;77;743;-72
2021/10/03 11:35:58;;;;;;;;;;;23.70;40.30;;;;;;1535547;77;714;-73
2021/10/03 11:38:00;;;;;;;;;;;23.80;40.40;;;;;;1499775;77;729;-71
2021/10/03 11:40:07;;;;;;;;;;;23.80;40.40;;;;;;1516228;77;702;-73
2021/10/03 11:42:08;;;;;;;;;;;23.80;40.50;;;;;;1561505;75;1926;-75
2021/10/03 11:44:22;;;;;;;;;;;23.60;40.50;;;;;;1561363;75;661;-72
2021/10/03 11:46:24;;;;;;;;;;;23.70;40.70;;;;;;1569320;75;717;-70
2021/10/03 11:48:26;;;;;;;;;;;23.70;40.80;;;;;;1569462;75;762;-73
2021/10/03 11:50:29;;;;;;;;;;;23.70;40.80;;;;;;1568017;75;705;-73
2021/10/03 11:52:32;;;;;;;;;;;23.70;40.90;;;;;;1569331;75;1125;-72
2021/10/03 11:54:36;;;;;;;;;;;23.70;40.90;;;;;;1571645;75;1006;-72
2021/10/03 11:56:38;;;;;;;;;;;23.80;41.00;;;;;;1569438;75;759;-72
2021/10/03 11:58:41;;;;;;;;;;;23.80;41.10;;;;;;1567115;75;675;-73
2021/10/03 12:00:57;;;;;;;;;;;23.70;41.10;;;;;;1571141;75;1939;-72
2021/10/03 12:03:06;;;;;;;;;;;23.70;41.10;;;;;;1565519;75;1521;-73
2021/10/03 12:05:08;;;;;;;;;;;23.60;41.00;;;;;;1570325;75;784;-73
2021/10/03 12:07:16;;;;;;;;;;;23.70;41.20;;;;;;1569237;75;737;-72
2021/10/03 12:09:18;;;;;;;;;;;23.70;41.10;;;;;;1571514;75;682;-72
2021/10/03 12:11:19;;;;;;;;;;;23.60;41.10;;;;;;1565176;74;1155;-71
2021/10/03 12:13:24;;;;;;;;;;;23.70;41.40;;;;;;1566792;75;746;-70